createdAt,value
2018-11-11T00:01:41.837Z,1.20
2018-11-11T00:04:15.492Z,1.20
2018-11-11T00:06:48.760Z,1.23
2018-11-11T00:09:22.018Z,1.33
2018-11-11T00:11:58.027Z,1.20
2018-11-11T00:14:32.432Z,1.23
2018-11-11T00:17:05.641Z,1.07
2018-11-11T00:19:39.835Z,1.13
2018-11-11T00:22:14.206Z,1.17
2018-11-11T00:24:46.785Z,1.10
2018-11-11T00:27:21.872Z,1.00
2018-11-11T00:29:56.065Z,1.07
2018-11-11T00:32:31.160Z,1.17
2018-11-11T00:35:03.321Z,1.33
2018-11-11T00:37:38.549Z,1.23
2018-11-11T00:40:12.576Z,1.33
2018-11-11T00:42:47.868Z,1.40
2018-11-11T00:45:22.051Z,1.17
2018-11-11T00:47:56.018Z,1.40
2018-11-11T00:50:29.151Z,1.07
2018-11-11T00:53:04.208Z,1.03
2018-11-11T00:55:41.505Z,1.20
2018-11-11T00:58:16.368Z,1.07
2018-11-11T01:00:51.446Z,0.97
2018-11-11T01:03:26.577Z,0.90
2018-11-11T01:05:59.746Z,1.13
2018-11-11T01:08:34.002Z,0.87
2018-11-11T01:11:06.925Z,1.03
2018-11-11T01:13:41.659Z,1.13
2018-11-11T01:16:17.291Z,0.90
2018-11-11T01:18:51.998Z,1.07
2018-11-11T01:21:25.260Z,1.03
2018-11-11T01:24:00.505Z,1.03
2018-11-11T01:26:34.163Z,0.90
2018-11-11T01:29:08.724Z,1.03
2018-11-11T01:31:43.548Z,1.20
2018-11-11T01:34:17.645Z,1.07
2018-11-11T01:36:50.940Z,0.93
2018-11-11T01:39:24.684Z,1.10
2018-11-11T01:42:00.838Z,1.20
2018-11-11T01:44:34.142Z,1.47
2018-11-11T01:47:08.084Z,1.03
2018-11-11T01:49:42.500Z,0.90
2018-11-11T01:52:16.963Z,1.10
2018-11-11T01:54:50.664Z,1.20
2018-11-11T01:57:26.945Z,1.07
2018-11-11T01:59:59.626Z,1.10
2018-11-11T02:02:33.888Z,1.10
2018-11-11T02:05:07.233Z,1.03
2018-11-11T02:07:41.377Z,1.03
2018-11-11T02:10:16.749Z,1.03
2018-11-11T02:12:50.738Z,0.97
2018-11-11T02:15:24.659Z,1.10
2018-11-11T02:17:58.315Z,1.30
2018-11-11T02:20:30.672Z,1.07
2018-11-11T02:23:02.602Z,1.10
2018-11-11T02:25:36.847Z,1.03
2018-11-11T02:28:11.968Z,1.07
2018-11-11T02:30:45.544Z,1.17
2018-11-11T02:33:18.611Z,0.93
2018-11-11T02:35:54.093Z,1.10
2018-11-11T02:38:27.956Z,1.17
2018-11-11T02:41:01.801Z,1.33
2018-11-11T02:43:37.792Z,1.03
2018-11-11T02:46:11.882Z,1.20
2018-11-11T02:48:45.149Z,1.13
2018-11-11T02:51:16.046Z,1.17
2018-11-11T02:53:48.475Z,1.17
2018-11-11T02:56:22.698Z,0.97
2018-11-11T02:58:57.413Z,1.33
2018-11-11T03:01:29.873Z,1.10
2018-11-11T03:04:03.169Z,1.27
2018-11-11T03:06:36.744Z,1.53
2018-11-11T03:09:13.657Z,1.57
2018-11-11T03:11:45.455Z,1.33
2018-11-11T03:14:18.710Z,1.43
2018-11-11T03:16:51.306Z,1.53
2018-11-11T03:19:23.676Z,1.50
2018-11-11T03:21:58.067Z,1.53
2018-11-11T03:24:33.566Z,1.67
2018-11-11T03:27:08.261Z,1.63
2018-11-11T03:29:41.090Z,1.20
2018-11-11T03:32:14.247Z,1.10
2018-11-11T03:34:48.659Z,1.20
2018-11-11T03:37:21.855Z,1.67
2018-11-11T03:40:00.371Z,1.80
2018-11-11T03:42:36.056Z,1.53
2018-11-11T03:45:11.382Z,1.80
2018-11-11T03:47:46.918Z,1.63
2018-11-11T03:50:20.091Z,1.73
2018-11-11T03:52:52.398Z,1.50
2018-11-11T03:55:27.935Z,1.93
2018-11-11T03:58:01.704Z,1.60
2018-11-11T04:00:35.542Z,1.67
2018-11-11T04:03:09.326Z,1.50
2018-11-11T04:05:43.465Z,1.67
2018-11-11T04:08:17.004Z,1.50
2018-11-11T04:10:50.066Z,1.50
2018-11-11T04:13:24.290Z,1.60
2018-11-11T04:15:57.378Z,1.83
2018-11-11T04:18:30.800Z,1.50
2018-11-11T04:21:02.255Z,1.83
2018-11-11T04:23:37.995Z,1.97
2018-11-11T04:26:12.954Z,1.60
2018-11-11T04:28:45.369Z,1.87
2018-11-11T04:31:18.729Z,1.77
2018-11-11T04:33:53.150Z,1.73
2018-11-11T04:36:26.250Z,1.57
2018-11-11T04:39:00.620Z,1.77
2018-11-11T04:41:34.897Z,1.80
2018-11-11T04:44:10.506Z,1.67
2018-11-11T04:46:45.909Z,1.87
2018-11-11T04:49:21.092Z,1.70
2018-11-11T04:51:55.166Z,1.60
2018-11-11T04:54:28.939Z,1.67
2018-11-11T04:57:01.356Z,1.70
2018-11-11T04:59:35.353Z,1.53
2018-11-11T05:02:10.398Z,1.80
2018-11-11T05:04:43.203Z,1.50
2018-11-11T05:07:18.568Z,1.47
2018-11-11T05:09:51.533Z,1.63
2018-11-11T05:12:26.729Z,1.57
2018-11-11T05:14:59.668Z,1.40
2018-11-11T05:17:34.074Z,1.63
2018-11-11T05:20:07.342Z,1.63
2018-11-11T05:22:42.657Z,1.40
2018-11-11T05:25:17.128Z,1.80
2018-11-11T05:27:52.063Z,1.47
2018-11-11T05:30:26.176Z,1.70
2018-11-11T05:32:59.468Z,1.63
2018-11-11T05:35:33.335Z,1.53
2018-11-11T05:38:06.006Z,1.47
2018-11-11T05:40:41.288Z,1.50
2018-11-11T05:43:11.546Z,1.63
2018-11-11T05:45:46.269Z,1.50
2018-11-11T05:48:19.159Z,1.23
2018-11-11T05:50:52.325Z,1.37
2018-11-11T05:53:28.884Z,1.57
2018-11-11T05:56:02.356Z,1.30
2018-11-11T05:58:34.745Z,1.67
2018-11-11T06:01:08.175Z,1.20
2018-11-11T06:03:41.790Z,1.57
2018-11-11T06:06:15.479Z,1.10
2018-11-11T06:08:47.194Z,1.53
2018-11-11T06:11:24.300Z,1.37
2018-11-11T06:13:57.746Z,1.30
2018-11-11T06:16:33.038Z,1.13
2018-11-11T06:19:06.922Z,1.17
2018-11-11T06:21:39.747Z,1.30
2018-11-11T06:24:14.832Z,1.20
2018-11-11T06:26:49.750Z,1.13
2018-11-11T06:29:24.250Z,1.10
2018-11-11T06:31:57.447Z,1.37
2018-11-11T06:34:31.081Z,1.20
2018-11-11T06:37:05.077Z,1.00
2018-11-11T06:39:39.601Z,0.90
2018-11-11T06:42:12.596Z,1.27
2018-11-11T06:44:47.063Z,1.07
2018-11-11T06:47:20.269Z,1.20
2018-11-11T06:49:54.854Z,1.10
2018-11-11T06:52:29.292Z,1.03
2018-11-11T06:55:00.622Z,0.97
2018-11-11T06:57:32.824Z,1.30
2018-11-11T07:00:06.222Z,1.10
2018-11-11T07:02:41.544Z,1.37
2018-11-11T07:05:15.083Z,1.20
2018-11-11T07:07:48.265Z,1.00
2018-11-11T07:10:21.225Z,1.30
2018-11-11T07:12:56.996Z,1.03
2018-11-11T07:15:30.848Z,1.10
2018-11-11T07:18:02.919Z,0.97
2018-11-11T07:20:38.235Z,1.13
2018-11-11T07:23:11.471Z,1.17
2018-11-11T07:25:46.624Z,1.27
2018-11-11T07:28:22.010Z,1.33
2018-11-11T07:30:54.785Z,1.13
2018-11-11T07:33:29.169Z,1.40
2018-11-11T07:36:03.352Z,1.10
2018-11-11T07:38:37.606Z,1.27
2018-11-11T07:41:13.138Z,1.53
2018-11-11T07:43:45.355Z,1.60
2018-11-11T07:46:20.635Z,1.23
2018-11-11T07:48:53.699Z,1.37
2018-11-11T07:51:28.058Z,1.13
2018-11-11T07:54:02.698Z,1.23
2018-11-11T07:56:35.859Z,1.07
2018-11-11T07:59:10.373Z,1.10
2018-11-11T08:01:44.576Z,1.13
2018-11-11T08:04:19.014Z,1.07
2018-11-11T08:06:52.758Z,1.10
2018-11-11T08:09:28.187Z,1.03
2018-11-11T08:12:02.749Z,1.10
2018-11-11T08:14:35.945Z,1.10
2018-11-11T08:17:11.562Z,1.07
2018-11-11T08:19:44.262Z,0.90
2018-11-11T08:22:19.812Z,1.03
2018-11-11T08:24:53.824Z,1.10
2018-11-11T08:27:27.314Z,1.03
2018-11-11T08:30:01.067Z,1.23
2018-11-11T08:32:35.455Z,1.33
2018-11-11T08:35:09.766Z,1.03
2018-11-11T08:37:44.345Z,1.17
2018-11-11T08:40:18.368Z,0.80
2018-11-11T08:42:52.532Z,1.03
2018-11-11T08:45:26.900Z,0.97
2018-11-11T08:48:00.735Z,0.83
2018-11-11T08:50:34.566Z,0.80
2018-11-11T08:53:09.204Z,0.80
2018-11-11T08:55:46.291Z,1.00
2018-11-11T08:58:20.310Z,0.57
2018-11-11T09:00:55.424Z,0.80
2018-11-11T09:03:28.864Z,0.83
2018-11-11T09:06:00.316Z,0.60
2018-11-11T09:08:33.343Z,0.70
2018-11-11T09:11:07.280Z,0.70
2018-11-11T09:13:41.865Z,0.60
2018-11-11T09:16:15.459Z,0.83
2018-11-11T09:18:48.836Z,0.67
2018-11-11T09:21:24.029Z,0.80
2018-11-11T09:23:58.299Z,0.73
2018-11-11T09:26:33.105Z,0.67
2018-11-11T09:29:07.046Z,0.80
2018-11-11T09:31:42.161Z,0.73
2018-11-11T09:34:16.129Z,0.77
2018-11-11T09:36:49.105Z,0.77
2018-11-11T09:39:23.222Z,0.80
2018-11-11T09:41:56.132Z,0.63
2018-11-11T09:44:29.701Z,0.53
2018-11-11T09:47:01.856Z,0.43
2018-11-11T09:49:35.798Z,0.60
2018-11-11T09:52:08.633Z,0.53
2018-11-11T09:54:44.681Z,0.50
2018-11-11T09:57:18.143Z,0.60
2018-11-11T09:59:51.547Z,0.40
2018-11-11T10:02:22.791Z,0.30
2018-11-11T10:04:58.154Z,0.50
2018-11-11T10:07:36.447Z,0.23
2018-11-11T10:10:18.531Z,0.40
2018-11-11T10:13:02.615Z,0.30
2018-11-11T10:15:58.437Z,0.40
2018-11-11T10:18:40.335Z,0.30
2018-11-11T10:21:55.580Z,0.37
2018-11-11T10:24:33.781Z,0.30
2018-11-11T10:27:11.017Z,0.30
2018-11-11T10:29:49.798Z,0.27
2018-11-11T10:32:37.437Z,0.30
2018-11-11T10:36:16.120Z,0.30
2018-11-11T10:40:58.785Z,0.53
2018-11-11T10:43:41.171Z,0.50
2018-11-11T10:46:26.318Z,0.50
2018-11-11T10:49:03.956Z,0.40
2018-11-11T10:51:38.550Z,0.50
2018-11-11T10:54:12.830Z,0.50
2018-11-11T10:56:48.275Z,0.57
2018-11-11T10:59:21.897Z,0.50
2018-11-11T11:02:00.143Z,0.50
2018-11-11T11:04:34.054Z,0.40
2018-11-11T11:07:08.784Z,0.40
2018-11-11T11:09:49.057Z,0.63
2018-11-11T11:12:25.195Z,0.60
2018-11-11T11:15:00.177Z,0.47
2018-11-11T11:17:36.393Z,0.70
2018-11-11T11:20:09.972Z,0.63
2018-11-11T11:22:44.723Z,0.60
2018-11-11T11:25:20.161Z,0.60
2018-11-11T11:27:55.266Z,0.73
2018-11-11T11:30:28.256Z,0.60
2018-11-11T11:33:01.996Z,0.60
2018-11-11T11:35:35.706Z,0.67
2018-11-11T11:38:09.242Z,0.50
2018-11-11T11:40:46.017Z,0.53
2018-11-11T11:43:19.288Z,0.60
2018-11-11T11:45:53.548Z,0.40
2018-11-11T11:48:26.926Z,0.40
2018-11-11T11:51:01.033Z,0.50
2018-11-11T11:53:36.067Z,0.40
2018-11-11T11:56:10.789Z,0.50
2018-11-11T11:58:45.858Z,0.40
2018-11-11T12:01:19.081Z,0.37
2018-11-11T12:03:54.497Z,0.30
2018-11-11T12:06:31.163Z,0.40
2018-11-11T12:09:07.214Z,0.33
2018-11-11T12:11:41.601Z,0.30
2018-11-11T12:14:15.000Z,0.40
2018-11-11T12:16:49.223Z,0.47
2018-11-11T12:19:23.485Z,0.30
2018-11-11T12:21:56.410Z,0.30
2018-11-11T12:24:29.052Z,0.40
2018-11-11T12:27:01.559Z,0.37
2018-11-11T12:29:35.406Z,0.30
2018-11-11T12:32:11.180Z,0.20
2018-11-11T12:34:46.653Z,0.20
2018-11-11T12:37:21.388Z,0.30
2018-11-11T12:39:56.762Z,0.30
2018-11-11T12:42:30.373Z,0.30
2018-11-11T12:45:03.165Z,0.30
2018-11-11T12:47:36.943Z,0.20
2018-11-11T12:50:11.917Z,0.20
2018-11-11T12:52:45.345Z,0.27
2018-11-11T12:55:20.549Z,0.30
2018-11-11T12:57:54.796Z,0.30
2018-11-11T13:00:28.447Z,0.30
2018-11-11T13:02:59.785Z,0.40
2018-11-11T13:05:34.059Z,0.20
2018-11-11T13:08:09.065Z,0.37
2018-11-11T13:10:44.764Z,0.30
2018-11-11T13:13:19.095Z,0.20
2018-11-11T13:15:52.220Z,0.30
2018-11-11T13:18:27.134Z,0.30
2018-11-11T13:20:59.704Z,0.27
2018-11-11T13:23:36.504Z,0.27
2018-11-11T13:26:12.891Z,0.20
2018-11-11T13:28:47.039Z,0.20
2018-11-11T13:32:23.302Z,0.20
2018-11-11T13:34:58.166Z,0.20
2018-11-11T13:37:32.255Z,0.30
2018-11-11T13:40:06.664Z,0.10
2018-11-11T13:42:41.515Z,0.30
2018-11-11T13:45:17.792Z,0.40
2018-11-11T13:47:52.670Z,0.30
2018-11-11T13:50:27.883Z,0.40
2018-11-11T13:53:05.247Z,0.40
2018-11-11T13:55:41.331Z,0.30
2018-11-11T13:58:14.082Z,0.20
2018-11-11T14:00:46.303Z,0.20
2018-11-11T14:03:20.322Z,0.20
2018-11-11T14:05:54.624Z,0.30
2018-11-11T14:08:28.303Z,0.40
2018-11-11T14:11:00.901Z,0.20
2018-11-11T14:13:35.051Z,0.10
2018-11-11T14:16:04.619Z,0.30
2018-11-11T14:18:38.613Z,0.30
2018-11-11T14:21:10.166Z,0.30
2018-11-11T14:23:43.611Z,0.30
2018-11-11T14:26:17.468Z,0.20
2018-11-11T14:28:50.981Z,0.20
2018-11-11T14:31:24.736Z,0.30
2018-11-11T14:33:58.233Z,0.30
2018-11-11T14:36:32.434Z,0.20
2018-11-11T14:39:05.539Z,0.30
2018-11-11T14:41:40.128Z,0.30
2018-11-11T14:44:15.143Z,0.30
2018-11-11T14:46:48.062Z,0.30
2018-11-11T14:49:17.323Z,0.30
2018-11-11T14:51:46.381Z,0.30
2018-11-11T14:54:15.257Z,0.30
2018-11-11T14:56:44.211Z,0.30
2018-11-11T14:59:13.196Z,0.30
2018-11-11T15:01:42.192Z,0.50
2018-11-11T15:04:11.206Z,0.30
2018-11-11T15:06:40.156Z,0.23
2018-11-11T15:09:10.574Z,0.27
2018-11-11T15:11:40.081Z,0.30
2018-11-11T15:14:09.197Z,0.40
2018-11-11T15:16:38.192Z,0.40
2018-11-11T15:19:07.245Z,0.30
2018-11-11T15:21:36.095Z,0.30
2018-11-11T15:24:05.575Z,0.50
2018-11-11T15:26:34.537Z,0.20
2018-11-11T15:29:03.485Z,0.57
2018-11-11T15:31:32.477Z,0.27
2018-11-11T15:34:01.525Z,0.40
2018-11-11T15:36:31.108Z,0.40
2018-11-11T15:39:00.153Z,0.40
2018-11-11T15:41:29.076Z,0.47
2018-11-11T15:43:58.074Z,0.30
2018-11-11T15:46:27.129Z,0.23
2018-11-11T15:48:56.050Z,0.50
2018-11-11T15:51:24.995Z,0.60
2018-11-11T15:53:53.933Z,0.60
2018-11-11T15:56:22.957Z,0.40
2018-11-11T15:58:51.876Z,0.50
2018-11-11T16:01:20.845Z,0.50
2018-11-11T16:03:49.798Z,0.60
2018-11-11T16:06:18.807Z,0.47
2018-11-11T16:08:47.728Z,0.47
2018-11-11T16:11:17.714Z,0.67
2018-11-11T16:13:46.664Z,0.50
2018-11-11T16:16:15.661Z,0.33
2018-11-11T16:18:44.605Z,0.60
2018-11-11T16:21:13.605Z,0.60
2018-11-11T16:23:42.658Z,0.50
2018-11-11T16:26:11.593Z,0.60
2018-11-11T16:28:42.783Z,0.70
2018-11-11T16:31:13.583Z,0.77
2018-11-11T16:33:45.498Z,0.60
2018-11-11T16:36:17.651Z,0.57
2018-11-11T16:38:48.499Z,0.73
2018-11-11T16:41:17.932Z,0.70
2018-11-11T16:43:49.608Z,0.80
2018-11-11T16:46:21.136Z,0.60
2018-11-11T16:48:50.929Z,0.60
2018-11-11T16:51:22.382Z,0.73
2018-11-11T16:53:53.771Z,0.60
2018-11-11T16:56:25.680Z,0.60
2018-11-11T16:58:54.606Z,0.90
2018-11-11T17:01:23.553Z,0.60
2018-11-11T17:03:52.503Z,0.70
2018-11-11T17:06:21.450Z,0.83
2018-11-11T17:08:53.950Z,0.80
2018-11-11T17:11:25.408Z,0.83
2018-11-11T17:13:56.546Z,0.73
2018-11-11T17:16:27.828Z,0.80
2018-11-11T17:18:58.633Z,0.77
2018-11-11T17:21:28.123Z,0.70
2018-11-11T17:23:59.691Z,0.80
2018-11-11T17:26:32.161Z,0.80
2018-11-11T17:29:03.476Z,1.00
2018-11-11T17:31:34.202Z,0.93
2018-11-11T17:34:06.965Z,0.90
2018-11-11T17:36:36.484Z,0.87
2018-11-11T17:39:12.097Z,0.90
2018-11-11T17:41:44.317Z,0.97
2018-11-11T17:44:15.602Z,0.80
2018-11-11T17:46:48.507Z,0.83
2018-11-11T17:49:20.296Z,0.80
2018-11-11T17:51:49.269Z,0.83
2018-11-11T17:54:18.418Z,0.77
2018-11-11T17:56:51.869Z,0.80
2018-11-11T17:59:21.138Z,0.80
2018-11-11T18:01:50.129Z,0.77
2018-11-11T18:04:19.089Z,0.83
2018-11-11T18:06:48.034Z,0.60
2018-11-11T18:09:17.089Z,0.60
2018-11-11T18:11:46.072Z,1.00
2018-11-11T18:14:16.218Z,0.70
2018-11-11T18:16:45.170Z,0.60
2018-11-11T18:19:14.313Z,0.50
2018-11-11T18:21:44.433Z,0.83
2018-11-11T18:24:13.450Z,0.70
2018-11-11T18:26:42.542Z,0.80
2018-11-11T18:29:11.519Z,0.73
2018-11-11T18:31:40.538Z,0.87
2018-11-11T18:34:09.505Z,0.87
2018-11-11T18:36:38.483Z,0.80
2018-11-11T18:39:09.380Z,0.70
2018-11-11T18:41:38.556Z,0.90
2018-11-11T18:44:07.596Z,0.90
2018-11-11T18:46:36.823Z,0.80
2018-11-11T18:49:07.706Z,0.67
2018-11-11T18:51:37.029Z,0.80
2018-11-11T18:54:05.974Z,0.77
2018-11-11T18:56:35.160Z,0.73
2018-11-11T18:59:04.143Z,0.63
2018-11-11T19:01:33.289Z,0.80
2018-11-11T19:04:02.313Z,0.83
2018-11-11T19:06:31.625Z,0.80
2018-11-11T19:09:00.549Z,0.80
2018-11-11T19:11:29.567Z,0.83
2018-11-11T19:13:58.631Z,0.90
2018-11-11T19:16:27.786Z,0.73
2018-11-11T19:18:56.831Z,0.80
2018-11-11T19:21:25.721Z,0.77
2018-11-11T19:23:55.104Z,0.63
2018-11-11T19:26:24.087Z,0.90
2018-11-11T19:28:53.025Z,0.80
2018-11-11T19:31:21.983Z,0.70
2018-11-11T19:33:51.287Z,0.80
2018-11-11T19:36:20.238Z,0.97
2018-11-11T19:38:49.140Z,0.60
2018-11-11T19:41:21.141Z,0.97
2018-11-11T19:43:51.841Z,0.70
2018-11-11T19:46:23.207Z,0.60
2018-11-11T19:48:52.377Z,0.77
2018-11-11T19:51:21.356Z,0.60
2018-11-11T19:53:50.397Z,0.83
2018-11-11T19:56:19.446Z,0.70
2018-11-11T19:58:48.833Z,0.70
2018-11-11T20:01:21.015Z,0.73
2018-11-11T20:03:50.591Z,0.93
2018-11-11T20:06:19.597Z,0.80
2018-11-11T20:08:48.532Z,0.70
2018-11-11T20:11:17.522Z,0.90
2018-11-11T20:13:46.652Z,0.80
2018-11-11T20:16:15.605Z,0.83
2018-11-11T20:18:44.536Z,0.70
2018-11-11T20:21:13.747Z,0.80
2018-11-11T20:23:42.768Z,0.70
2018-11-11T20:26:11.750Z,0.90
2018-11-11T20:28:40.722Z,0.80
2018-11-11T20:31:09.692Z,0.77
2018-11-11T20:33:38.816Z,0.90
2018-11-11T20:36:07.762Z,0.87
2018-11-11T20:38:36.721Z,0.80
2018-11-11T20:41:05.926Z,0.70
2018-11-11T20:43:35.128Z,0.63
2018-11-11T20:46:04.317Z,0.80
2018-11-11T20:48:33.499Z,0.53
2018-11-11T20:51:02.452Z,0.67
2018-11-11T20:53:31.435Z,0.67
2018-11-11T20:56:00.498Z,0.70
2018-11-11T20:58:29.365Z,0.50
2018-11-11T21:01:00.572Z,0.73
2018-11-11T21:03:34.626Z,0.60
2018-11-11T21:06:09.036Z,0.57
2018-11-11T21:08:42.060Z,0.77
2018-11-11T21:11:15.867Z,0.70
2018-11-11T21:13:48.928Z,0.60
2018-11-11T21:16:24.601Z,0.70
2018-11-11T21:18:58.121Z,0.70
2018-11-11T21:21:31.776Z,0.60
2018-11-11T21:24:05.262Z,0.53
2018-11-11T21:26:39.736Z,0.80
2018-11-11T21:29:14.275Z,0.77
2018-11-11T21:31:49.114Z,0.73
2018-11-11T21:34:23.230Z,0.67
2018-11-11T21:36:57.058Z,0.60
2018-11-11T21:39:33.346Z,0.70
2018-11-11T21:42:08.331Z,0.77
2018-11-11T21:44:44.962Z,0.60
2018-11-11T21:47:20.090Z,0.70
2018-11-11T21:49:52.788Z,0.80
2018-11-11T21:52:29.170Z,0.60
2018-11-11T21:55:04.940Z,0.80
2018-11-11T21:57:40.401Z,0.70
2018-11-11T22:00:22.296Z,0.50
2018-11-11T22:02:57.594Z,0.67
2018-11-11T22:05:31.202Z,0.70
2018-11-11T22:08:05.239Z,0.60
2018-11-11T22:10:37.756Z,0.80
2018-11-11T22:13:11.075Z,1.10
2018-11-11T22:15:44.228Z,0.57
2018-11-11T22:18:17.115Z,0.60
2018-11-11T22:20:51.141Z,0.50
2018-11-11T22:23:28.795Z,0.60
2018-11-11T22:26:02.152Z,0.60
2018-11-11T22:28:37.675Z,0.60
2018-11-11T22:31:12.333Z,0.60
2018-11-11T22:33:47.573Z,0.50
2018-11-11T22:36:22.403Z,0.70
2018-11-11T22:38:57.267Z,0.50
2018-11-11T22:41:32.910Z,0.63
2018-11-11T22:44:07.628Z,0.57
2018-11-11T22:46:40.766Z,0.63
2018-11-11T22:49:16.562Z,0.60
2018-11-11T22:51:50.309Z,0.87
2018-11-11T22:54:19.753Z,0.93
2018-11-11T22:56:54.786Z,0.70
2018-11-11T22:59:30.335Z,0.77
2018-11-11T23:02:00.417Z,0.67
2018-11-11T23:04:35.654Z,0.60
2018-11-11T23:07:09.641Z,0.60
2018-11-11T23:09:43.543Z,0.60
2018-11-11T23:12:18.361Z,0.50
2018-11-11T23:14:51.948Z,0.40
2018-11-11T23:17:25.833Z,0.60
2018-11-11T23:19:59.743Z,0.50
2018-11-11T23:22:33.613Z,0.50
2018-11-11T23:25:05.907Z,0.60
2018-11-11T23:27:39.333Z,0.63
2018-11-11T23:30:18.050Z,0.70
2018-11-11T23:32:50.990Z,0.70
2018-11-11T23:35:27.013Z,0.60
2018-11-11T23:37:59.962Z,0.60
2018-11-11T23:40:34.517Z,0.63
2018-11-11T23:43:09.199Z,0.83
2018-11-11T23:45:44.948Z,0.93
2018-11-11T23:48:20.866Z,0.70
2018-11-11T23:50:54.085Z,0.80
2018-11-11T23:53:27.921Z,0.67
2018-11-11T23:56:02.184Z,0.90
2018-11-11T23:58:36.323Z,0.70
